createdAt,value
2019-03-22T00:00:53.917Z,1033.02
2019-03-22T00:01:53.831Z,1033.04
2019-03-22T00:02:53.772Z,1033.03
2019-03-22T00:04:53.847Z,1033.04
2019-03-22T00:05:53.954Z,1033.03
2019-03-22T00:06:53.869Z,1033.01
2019-03-22T00:07:53.864Z,1033
2019-03-22T00:09:53.906Z,1032.97
2019-03-22T00:10:53.889Z,1032.94
2019-03-22T00:11:53.929Z,1032.95
2019-03-22T00:12:54.046Z,1032.92
2019-03-22T00:14:53.951Z,1032.87
2019-03-22T00:15:53.959Z,1032.85
2019-03-22T00:16:53.986Z,1032.89
2019-03-22T00:17:53.738Z,1032.89
2019-03-22T00:19:53.743Z,1032.85
2019-03-22T00:20:53.841Z,1032.87
2019-03-22T00:21:53.864Z,1032.81
2019-03-22T00:22:53.804Z,1032.87
2019-03-22T00:25:53.913Z,1032.84
2019-03-22T00:26:53.809Z,1032.81
2019-03-22T00:28:53.877Z,1032.84
2019-03-22T00:29:53.910Z,1032.84
2019-03-22T00:30:53.977Z,1032.81
2019-03-22T00:31:53.891Z,1032.81
2019-03-22T00:33:53.905Z,1032.82
2019-03-22T00:34:53.805Z,1032.8
2019-03-22T00:36:53.774Z,1032.82
2019-03-22T00:38:53.775Z,1032.79
2019-03-22T00:40:53.888Z,1032.8
2019-03-22T00:41:53.862Z,1032.82
2019-03-22T00:42:53.858Z,1032.8
2019-03-22T00:43:53.914Z,1032.78
2019-03-22T00:45:53.941Z,1032.73
2019-03-22T00:46:54.053Z,1032.72
2019-03-22T00:47:53.891Z,1032.71
2019-03-22T00:48:54.363Z,1032.7
2019-03-22T00:51:54.063Z,1032.8
2019-03-22T00:52:53.976Z,1032.78
2019-03-22T00:54:53.728Z,1032.78
2019-03-22T00:55:53.709Z,1032.77
2019-03-22T00:56:53.717Z,1032.75
2019-03-22T00:57:53.750Z,1032.76
2019-03-22T01:00:53.823Z,1032.74
2019-03-22T01:02:53.881Z,1032.75
2019-03-22T01:03:54.972Z,1032.77
2019-03-22T01:05:53.874Z,1032.75
2019-03-22T01:06:53.996Z,1032.75
2019-03-22T01:07:54.052Z,1032.74
2019-03-22T01:08:53.993Z,1032.74
2019-03-22T01:10:54.289Z,1032.77
2019-03-22T01:11:54.209Z,1032.73
2019-03-22T01:12:53.728Z,1032.75
2019-03-22T01:13:53.726Z,1032.75
2019-03-22T01:16:53.754Z,1032.73
2019-03-22T01:17:53.791Z,1032.71
2019-03-22T01:18:53.845Z,1032.69
2019-03-22T01:19:53.808Z,1032.66
2019-03-22T01:21:53.847Z,1032.69
2019-03-22T01:22:53.919Z,1032.67
2019-03-22T01:24:53.941Z,1032.67
2019-03-22T01:25:53.892Z,1032.67
2019-03-22T01:27:54.032Z,1032.66
2019-03-22T01:28:53.922Z,1032.67
2019-03-22T01:29:53.956Z,1032.7
2019-03-22T01:30:53.664Z,1032.71
2019-03-22T01:32:54.159Z,1032.64
2019-03-22T01:33:53.706Z,1032.65
2019-03-22T01:34:53.733Z,1032.65
2019-03-22T01:35:53.857Z,1032.65
2019-03-22T01:37:53.767Z,1032.62
2019-03-22T01:39:53.982Z,1032.66
2019-03-22T01:40:53.994Z,1032.63
2019-03-22T01:41:53.810Z,1032.64
2019-03-22T01:42:53.861Z,1032.62
2019-03-22T01:44:53.986Z,1032.66
2019-03-22T01:45:53.883Z,1032.66
2019-03-22T01:46:53.874Z,1032.67
2019-03-22T01:47:54.023Z,1032.67
2019-03-22T01:49:53.713Z,1032.65
2019-03-22T01:51:53.728Z,1032.65
2019-03-22T01:52:53.817Z,1032.68
2019-03-22T01:53:53.843Z,1032.66
2019-03-22T01:54:53.816Z,1032.67
2019-03-22T01:58:53.827Z,1032.6
2019-03-22T01:59:53.861Z,1032.61
2019-03-22T02:00:53.981Z,1032.61
2019-03-22T02:01:53.866Z,1032.62
2019-03-22T02:03:53.903Z,1032.6
2019-03-22T02:05:54.004Z,1032.59
2019-03-22T02:06:53.924Z,1032.61
2019-03-22T02:08:53.693Z,1032.6
2019-03-22T02:09:53.686Z,1032.6
2019-03-22T02:10:53.827Z,1032.58
2019-03-22T02:11:53.716Z,1032.59
2019-03-22T02:14:53.721Z,1032.57
2019-03-22T02:15:54.173Z,1032.57
2019-03-22T02:17:53.782Z,1032.55
2019-03-22T02:18:53.789Z,1032.57
2019-03-22T02:19:53.790Z,1032.58
2019-03-22T02:20:53.877Z,1032.52
2019-03-22T02:22:53.943Z,1032.57
2019-03-22T02:23:53.857Z,1032.55
2019-03-22T02:25:53.904Z,1032.59
2019-03-22T02:26:54.079Z,1032.57
2019-03-22T02:28:04.693Z,1032.61
2019-03-22T02:29:53.733Z,1032.62
2019-03-22T02:30:53.768Z,1032.59
2019-03-22T02:31:53.761Z,1032.59
2019-03-22T02:32:53.825Z,1032.6
2019-03-22T02:34:53.899Z,1032.55
2019-03-22T02:35:53.852Z,1032.57
2019-03-22T02:36:53.858Z,1032.54
2019-03-22T02:37:53.936Z,1032.57
2019-03-22T02:40:53.857Z,1032.54
2019-03-22T02:41:53.925Z,1032.53
2019-03-22T02:42:53.933Z,1032.52
2019-03-22T02:43:55.073Z,1032.58
2019-03-22T02:46:53.785Z,1032.53
2019-03-22T02:48:53.679Z,1032.57
2019-03-22T02:49:53.713Z,1032.54
2019-03-22T02:50:56.710Z,1032.55
2019-03-22T02:51:53.689Z,1032.49
2019-03-22T02:53:53.733Z,1032.51
2019-03-22T02:54:53.775Z,1032.55
2019-03-22T02:55:54.423Z,1032.54
2019-03-22T02:56:53.791Z,1032.54
2019-03-22T02:58:54.176Z,1032.55
2019-03-22T02:59:53.849Z,1032.53
2019-03-22T03:01:53.898Z,1032.52
2019-03-22T03:02:53.933Z,1032.55
2019-03-22T03:03:53.715Z,1032.51
2019-03-22T03:05:53.864Z,1032.54
2019-03-22T03:06:53.725Z,1032.56
2019-03-22T03:07:53.721Z,1032.58
2019-03-22T03:08:53.824Z,1032.55
2019-03-22T03:10:53.921Z,1032.6
2019-03-22T03:12:54.140Z,1032.6
2019-03-22T03:13:53.833Z,1032.59
2019-03-22T03:16:53.938Z,1032.59
2019-03-22T03:17:53.985Z,1032.64
2019-03-22T03:18:54.006Z,1032.61
2019-03-22T03:19:54.104Z,1032.67
2019-03-22T03:21:53.775Z,1032.63
2019-03-22T03:22:53.667Z,1032.62
2019-03-22T03:23:53.669Z,1032.6
2019-03-22T03:24:53.700Z,1032.58
2019-03-22T03:26:53.890Z,1032.54
2019-03-22T03:27:53.726Z,1032.52
2019-03-22T03:28:53.762Z,1032.5
2019-03-22T03:29:53.766Z,1032.5
2019-03-22T03:31:53.829Z,1032.45
2019-03-22T03:32:53.975Z,1032.49
2019-03-22T03:33:53.853Z,1032.48
2019-03-22T03:34:53.974Z,1032.48
2019-03-22T03:36:53.864Z,1032.51
2019-03-22T03:37:54.009Z,1032.54
2019-03-22T03:38:53.899Z,1032.48
2019-03-22T03:39:53.738Z,1032.53
2019-03-22T03:41:53.951Z,1032.55
2019-03-22T03:43:53.747Z,1032.53
2019-03-22T03:44:53.751Z,1032.56
2019-03-22T03:45:53.775Z,1032.55
2019-03-22T03:46:53.744Z,1032.55
2019-03-22T03:48:53.831Z,1032.54
2019-03-22T03:49:53.963Z,1032.57
2019-03-22T03:50:53.832Z,1032.57
2019-03-22T03:51:53.868Z,1032.58
2019-03-22T03:53:54.001Z,1032.59
2019-03-22T03:55:53.939Z,1032.63
2019-03-22T03:56:53.941Z,1032.61
2019-03-22T03:57:53.692Z,1032.62
2019-03-22T03:58:53.779Z,1032.66
2019-03-22T04:00:53.691Z,1032.65
2019-03-22T04:01:53.722Z,1032.65
2019-03-22T04:03:53.710Z,1032.64
2019-03-22T04:04:53.737Z,1032.66
2019-03-22T04:05:53.775Z,1032.65
2019-03-22T04:06:53.782Z,1032.65
2019-03-22T04:08:53.806Z,1032.68
2019-03-22T04:09:53.823Z,1032.71
2019-03-22T04:10:53.825Z,1032.69
2019-03-22T04:13:53.903Z,1032.67
2019-03-22T04:14:53.794Z,1032.71
2019-03-22T04:15:53.686Z,1032.71
2019-03-22T04:16:53.725Z,1032.69
2019-03-22T04:18:53.716Z,1032.71
2019-03-22T04:19:53.731Z,1032.71
2019-03-22T04:20:53.849Z,1032.69
2019-03-22T04:21:53.765Z,1032.73
2019-03-22T04:23:53.849Z,1032.7
2019-03-22T04:26:53.945Z,1032.7
2019-03-22T04:27:53.899Z,1032.69
2019-03-22T04:29:08.662Z,1032.66
2019-03-22T04:29:53.875Z,1032.65
2019-03-22T04:31:53.911Z,1032.68
2019-03-22T04:32:53.906Z,1032.67
2019-03-22T04:33:53.609Z,1032.68
2019-03-22T04:34:53.661Z,1032.69
2019-03-22T04:36:53.679Z,1032.7
2019-03-22T04:37:53.760Z,1032.74
2019-03-22T04:38:53.754Z,1032.75
2019-03-22T04:39:53.784Z,1032.71
2019-03-22T04:41:53.727Z,1032.74
2019-03-22T04:42:53.785Z,1032.74
2019-03-22T04:44:53.776Z,1032.72
2019-03-22T04:45:53.811Z,1032.77
2019-03-22T04:46:53.793Z,1032.78
2019-03-22T04:47:53.832Z,1032.8
2019-03-22T04:49:53.932Z,1032.81
2019-03-22T04:50:53.633Z,1032.79
2019-03-22T04:51:53.652Z,1032.81
2019-03-22T04:52:53.675Z,1032.79
2019-03-22T04:54:53.694Z,1032.76
2019-03-22T04:55:53.783Z,1032.74
2019-03-22T04:56:53.722Z,1032.76
2019-03-22T04:57:53.742Z,1032.71
2019-03-22T04:59:53.780Z,1032.71
2019-03-22T05:02:53.810Z,1032.68
2019-03-22T05:03:53.817Z,1032.69
2019-03-22T05:04:53.810Z,1032.68
2019-03-22T05:05:53.880Z,1032.66
2019-03-22T05:07:54.109Z,1032.68
2019-03-22T05:08:53.863Z,1032.66
2019-03-22T05:09:54.148Z,1032.66
2019-03-22T05:10:53.678Z,1032.7
2019-03-22T05:12:53.732Z,1032.72
2019-03-22T05:13:53.673Z,1032.7
2019-03-22T05:14:53.674Z,1032.74
2019-03-22T05:15:53.703Z,1032.73
2019-03-22T05:17:53.712Z,1032.75
2019-03-22T05:18:53.705Z,1032.75
2019-03-22T05:19:53.745Z,1032.78
2019-03-22T05:20:53.795Z,1032.75
2019-03-22T05:22:53.787Z,1032.76
2019-03-22T05:23:53.773Z,1032.76
2019-03-22T05:24:53.843Z,1032.78
2019-03-22T05:25:53.902Z,1032.77
2019-03-22T05:28:53.740Z,1032.77
2019-03-22T05:29:53.714Z,1032.8
2019-03-22T05:30:53.680Z,1032.79
2019-03-22T05:31:53.834Z,1032.82
2019-03-22T05:33:53.827Z,1032.83
2019-03-22T05:34:53.733Z,1032.81
2019-03-22T05:35:53.820Z,1032.81
2019-03-22T05:38:53.919Z,1032.88
2019-03-22T05:39:53.803Z,1032.87
2019-03-22T05:40:53.809Z,1032.88
2019-03-22T05:41:53.943Z,1032.88
2019-03-22T05:43:53.868Z,1032.91
2019-03-22T05:44:53.972Z,1032.89
2019-03-22T05:46:53.591Z,1032.89
2019-03-22T05:47:53.736Z,1032.95
2019-03-22T05:48:53.758Z,1032.91
2019-03-22T05:49:53.753Z,1032.91
2019-03-22T05:53:54.180Z,1032.88
2019-03-22T05:54:53.803Z,1032.89
2019-03-22T05:55:53.809Z,1032.89
2019-03-22T05:56:53.730Z,1032.9
2019-03-22T05:58:53.742Z,1032.9
2019-03-22T05:59:53.754Z,1032.89
2019-03-22T06:01:53.823Z,1032.87
2019-03-22T06:02:53.935Z,1032.9
2019-03-22T06:04:53.638Z,1032.92
2019-03-22T06:05:53.674Z,1032.9
2019-03-22T06:06:53.668Z,1032.94
2019-03-22T06:07:53.733Z,1032.96
2019-03-22T06:09:53.790Z,1033
2019-03-22T06:10:53.812Z,1033.03
2019-03-22T06:11:53.710Z,1033.03
2019-03-22T06:13:53.857Z,1033.05
2019-03-22T06:14:53.860Z,1033.04
2019-03-22T06:15:54.003Z,1033.03
2019-03-22T06:16:53.851Z,1033.03
2019-03-22T06:18:53.822Z,1033.08
2019-03-22T06:19:53.837Z,1033.09
2019-03-22T06:20:53.921Z,1033.13
2019-03-22T06:21:53.957Z,1033.13
2019-03-22T06:24:53.747Z,1033.11
2019-03-22T06:25:53.639Z,1033.16
2019-03-22T06:26:53.629Z,1033.19
2019-03-22T06:27:53.740Z,1033.19
2019-03-22T06:29:54.932Z,1033.17
2019-03-22T06:30:53.644Z,1033.14
2019-03-22T06:31:53.710Z,1033.16
2019-03-22T06:33:53.889Z,1033.18
2019-03-22T06:34:53.754Z,1033.18
2019-03-22T06:35:53.827Z,1033.18
2019-03-22T06:37:53.924Z,1033.19
2019-03-22T06:40:53.644Z,1033.2
2019-03-22T06:41:53.628Z,1033.24
2019-03-22T06:42:53.722Z,1033.24
2019-03-22T06:43:53.636Z,1033.25
2019-03-22T06:45:53.531Z,1033.25
2019-03-22T06:46:53.715Z,1033.29
2019-03-22T06:47:53.822Z,1033.26
2019-03-22T06:49:53.736Z,1033.28
2019-03-22T06:50:53.756Z,1033.3
2019-03-22T06:51:53.774Z,1033.34
2019-03-22T06:52:53.896Z,1033.34
2019-03-22T06:54:53.822Z,1033.36
2019-03-22T06:55:53.812Z,1033.38
2019-03-22T06:56:53.989Z,1033.37
2019-03-22T06:58:53.653Z,1033.37
2019-03-22T07:00:53.603Z,1033.37
2019-03-22T07:01:53.651Z,1033.37
2019-03-22T07:05:53.646Z,1033.37
2019-03-22T07:07:53.686Z,1033.35
2019-03-22T07:08:53.678Z,1033.35
2019-03-22T07:09:53.742Z,1033.36
2019-03-22T07:11:53.576Z,1033.36
2019-03-22T07:13:53.773Z,1033.34
2019-03-22T07:14:53.783Z,1033.36
2019-03-22T07:15:53.782Z,1033.35
2019-03-22T07:16:53.606Z,1033.34
2019-03-22T07:19:53.542Z,1033.32
2019-03-22T07:20:53.909Z,1033.32
2019-03-22T07:22:53.678Z,1033.25
2019-03-22T07:23:53.755Z,1033.26
2019-03-22T07:24:53.711Z,1033.23
2019-03-22T07:25:53.820Z,1033.23
2019-03-22T07:27:53.739Z,1033.22
2019-03-22T07:29:53.765Z,1033.21
2019-03-22T07:30:53.795Z,1033.22
2019-03-22T07:31:54.077Z,1033.25
2019-03-22T07:32:53.822Z,1033.23
2019-03-22T07:34:53.598Z,1033.24
2019-03-22T07:35:53.601Z,1033.27
2019-03-22T07:36:53.574Z,1033.26
2019-03-22T07:39:53.667Z,1033.25
2019-03-22T07:41:54.142Z,1033.25
2019-03-22T07:42:53.666Z,1033.25
2019-03-22T07:44:53.735Z,1033.21
2019-03-22T07:45:53.822Z,1033.16
2019-03-22T07:46:53.782Z,1033.13
2019-03-22T07:47:56.102Z,1033.1
2019-03-22T07:50:53.779Z,1033.05
2019-03-22T07:51:53.601Z,1033.01
2019-03-22T07:52:53.592Z,1033.02
2019-03-22T07:54:53.632Z,1033.01
2019-03-22T07:56:53.657Z,1032.92
2019-03-22T07:58:53.669Z,1032.89
2019-03-22T07:59:53.703Z,1032.9
2019-03-22T08:00:53.813Z,1032.87
2019-03-22T08:03:54.091Z,1032.84
2019-03-22T08:04:53.855Z,1032.9
2019-03-22T08:05:53.783Z,1032.89
2019-03-22T08:06:53.625Z,1032.87
2019-03-22T08:08:53.563Z,1032.87
2019-03-22T08:09:54.135Z,1032.88
2019-03-22T08:10:53.753Z,1032.88
2019-03-22T08:11:53.604Z,1032.85
2019-03-22T08:13:53.618Z,1032.84
2019-03-22T08:14:53.633Z,1032.85
2019-03-22T08:15:53.848Z,1032.81
2019-03-22T08:16:53.686Z,1032.8
2019-03-22T08:18:53.713Z,1032.8
2019-03-22T08:19:53.775Z,1032.8
2019-03-22T08:20:53.886Z,1032.78
2019-03-22T08:24:53.841Z,1032.81
2019-03-22T08:26:53.697Z,1032.82
2019-03-22T08:27:53.741Z,1032.79
2019-03-22T08:29:53.675Z,1032.75
2019-03-22T08:30:53.775Z,1032.74
2019-03-22T08:31:53.528Z,1032.75
2019-03-22T08:32:53.801Z,1032.75
2019-03-22T08:34:53.686Z,1032.73
2019-03-22T08:35:53.752Z,1032.72
2019-03-22T08:36:53.998Z,1032.73
2019-03-22T08:37:53.801Z,1032.72
2019-03-22T08:39:56.249Z,1032.7
2019-03-22T08:40:53.582Z,1032.72
2019-03-22T08:41:53.850Z,1032.71
2019-03-22T08:42:53.557Z,1032.72
2019-03-22T08:44:53.582Z,1032.7
2019-03-22T08:45:53.580Z,1032.68
2019-03-22T08:47:53.775Z,1032.71
2019-03-22T08:48:53.705Z,1032.7
2019-03-22T08:49:53.828Z,1032.74
2019-03-22T08:50:53.897Z,1032.76
2019-03-22T08:52:53.727Z,1032.77
2019-03-22T08:53:56.058Z,1032.78
2019-03-22T08:54:53.773Z,1032.78
2019-03-22T08:55:53.726Z,1032.77
2019-03-22T08:57:53.815Z,1032.78
2019-03-22T08:58:53.801Z,1032.75
2019-03-22T08:59:53.586Z,1032.73
2019-03-22T09:01:53.591Z,1032.74
2019-03-22T09:02:53.857Z,1032.71
2019-03-22T09:03:53.844Z,1032.71
2019-03-22T09:04:53.628Z,1032.74
2019-03-22T09:06:53.823Z,1032.7
2019-03-22T09:07:53.672Z,1032.69
2019-03-22T09:09:53.807Z,1032.72
2019-03-22T09:10:53.817Z,1032.71
2019-03-22T09:11:53.753Z,1032.7
2019-03-22T09:12:53.518Z,1032.73
2019-03-22T09:14:53.819Z,1032.73
2019-03-22T09:15:53.854Z,1032.72
2019-03-22T09:16:53.880Z,1032.72
2019-03-22T09:17:53.721Z,1032.7
2019-03-22T09:19:53.599Z,1032.71
2019-03-22T09:20:53.624Z,1032.69
2019-03-22T09:21:53.642Z,1032.7
2019-03-22T09:22:53.601Z,1032.73
2019-03-22T09:24:53.762Z,1032.67
2019-03-22T09:26:53.694Z,1032.63
2019-03-22T09:27:53.843Z,1032.62
2019-03-22T09:28:53.843Z,1032.62
2019-03-22T09:29:53.892Z,1032.6
2019-03-22T09:31:54.184Z,1032.59
2019-03-22T09:32:53.770Z,1032.56
2019-03-22T09:33:53.678Z,1032.52
2019-03-22T09:34:53.700Z,1032.54
2019-03-22T09:36:53.644Z,1032.54
2019-03-22T09:37:53.702Z,1032.52
2019-03-22T09:38:53.647Z,1032.52
2019-03-22T09:39:53.737Z,1032.48
2019-03-22T09:41:53.678Z,1032.49
2019-03-22T09:42:53.853Z,1032.46
2019-03-22T09:43:53.742Z,1032.44
2019-03-22T09:45:53.767Z,1032.43
2019-03-22T09:46:53.796Z,1032.44
2019-03-22T09:47:53.820Z,1032.4
2019-03-22T09:48:53.763Z,1032.42
2019-03-22T09:50:53.493Z,1032.37
2019-03-22T09:52:53.576Z,1032.37
2019-03-22T09:53:53.491Z,1032.33
2019-03-22T09:54:53.579Z,1032.34
2019-03-22T09:55:53.726Z,1032.33
2019-03-22T09:57:53.733Z,1032.29
2019-03-22T09:58:53.649Z,1032.26
2019-03-22T09:59:53.703Z,1032.29
2019-03-22T10:00:54.131Z,1032.26
2019-03-22T10:03:53.702Z,1032.21
2019-03-22T10:04:53.772Z,1032.18
2019-03-22T10:05:53.869Z,1032.19
2019-03-22T10:07:53.568Z,1032.13
2019-03-22T10:09:53.740Z,1032.17
2019-03-22T10:10:53.510Z,1032.13
2019-03-22T10:11:53.835Z,1032.11
2019-03-22T10:12:53.585Z,1032.12
2019-03-22T10:15:53.683Z,1032.02
2019-03-22T10:16:53.800Z,1032.04
2019-03-22T10:17:53.713Z,1032.05
2019-03-22T10:18:53.606Z,1032.08
2019-03-22T10:20:53.761Z,1032.04
2019-03-22T10:21:53.843Z,1032.03
2019-03-22T10:23:54.053Z,1032.02
2019-03-22T10:25:53.649Z,1032.01
2019-03-22T10:27:53.712Z,1032
2019-03-22T10:28:53.720Z,1032.02
2019-03-22T10:29:53.624Z,1031.97
2019-03-22T10:30:53.630Z,1031.95
2019-03-22T10:32:53.992Z,1031.97
2019-03-22T10:33:53.669Z,1031.96
2019-03-22T10:35:53.737Z,1031.89
2019-03-22T10:36:53.636Z,1031.91
2019-03-22T10:38:04.541Z,1031.91
2019-03-22T10:38:53.696Z,1031.84
2019-03-22T10:40:53.914Z,1031.93
2019-03-22T10:41:53.754Z,1031.89
2019-03-22T10:43:53.517Z,1031.92
2019-03-22T10:44:53.791Z,1031.88
2019-03-22T10:45:53.589Z,1031.88
2019-03-22T10:46:53.615Z,1031.91
2019-03-22T10:48:53.629Z,1031.92
2019-03-22T10:49:53.549Z,1031.91
2019-03-22T10:50:53.661Z,1031.89
2019-03-22T10:51:58.618Z,1031.88
2019-03-22T10:53:53.787Z,1031.85
2019-03-22T10:55:53.850Z,1031.85
2019-03-22T10:57:55.812Z,1031.81
2019-03-22T10:58:53.754Z,1031.81
2019-03-22T10:59:53.831Z,1031.78
2019-03-22T11:00:53.522Z,1031.78
2019-03-22T11:02:53.554Z,1031.78
2019-03-22T11:03:54.225Z,1031.75
2019-03-22T11:04:53.569Z,1031.72
2019-03-22T11:05:53.460Z,1031.69
2019-03-22T11:07:53.594Z,1031.72
2019-03-22T11:08:53.618Z,1031.7
2019-03-22T11:10:53.661Z,1031.69
2019-03-22T11:11:53.689Z,1031.69
2019-03-22T11:12:53.681Z,1031.73
2019-03-22T11:13:53.479Z,1031.68
2019-03-22T11:15:54.064Z,1031.66
2019-03-22T11:16:53.596Z,1031.71
2019-03-22T11:17:53.655Z,1031.64
2019-03-22T11:18:53.537Z,1031.68
2019-03-22T11:20:53.573Z,1031.61
2019-03-22T11:21:53.612Z,1031.61
2019-03-22T11:22:53.448Z,1031.58
2019-03-22T11:23:53.625Z,1031.55
2019-03-22T11:26:04.636Z,1031.56
2019-03-22T11:26:53.658Z,1031.54
2019-03-22T11:27:53.672Z,1031.49
2019-03-22T11:29:53.704Z,1031.51
2019-03-22T11:30:53.524Z,1031.49
2019-03-22T11:31:53.823Z,1031.49
2019-03-22T11:32:53.756Z,1031.48
2019-03-22T11:34:53.488Z,1031.49
2019-03-22T11:35:53.502Z,1031.5
2019-03-22T11:37:53.845Z,1031.52
2019-03-22T11:38:53.550Z,1031.54
2019-03-22T11:39:53.454Z,1031.45
2019-03-22T11:40:53.689Z,1031.47
2019-03-22T11:42:53.658Z,1031.44
2019-03-22T11:43:53.632Z,1031.46
2019-03-22T11:44:53.630Z,1031.48
2019-03-22T11:45:53.726Z,1031.46
2019-03-22T11:47:53.459Z,1031.44
2019-03-22T11:48:53.693Z,1031.39
2019-03-22T11:49:53.811Z,1031.38
2019-03-22T11:51:53.609Z,1031.37
2019-03-22T11:52:53.533Z,1031.34
2019-03-22T11:53:53.669Z,1031.29
2019-03-22T11:54:53.561Z,1031.28
2019-03-22T11:56:53.485Z,1031.28
2019-03-22T11:57:53.668Z,1031.32
2019-03-22T11:58:53.627Z,1031.31
2019-03-22T11:59:53.759Z,1031.25
2019-03-22T12:03:53.713Z,1031.24
2019-03-22T12:04:53.763Z,1031.21
2019-03-22T12:05:53.781Z,1031.26
2019-03-22T12:06:53.734Z,1031.22
2019-03-22T12:08:53.495Z,1031.18
2019-03-22T12:09:53.531Z,1031.17
2019-03-22T12:10:53.499Z,1031.14
2019-03-22T12:11:53.529Z,1031.06
2019-03-22T12:13:53.556Z,1031.06
2019-03-22T12:14:53.568Z,1031.07
2019-03-22T12:15:53.575Z,1031.03
2019-03-22T12:16:53.604Z,1031.02
2019-03-22T12:18:53.631Z,1030.96
2019-03-22T12:19:53.735Z,1031
2019-03-22T12:20:54.107Z,1031.01
2019-03-22T12:21:53.755Z,1031.03
2019-03-22T12:23:53.624Z,1030.99
2019-03-22T12:24:53.626Z,1031.01
2019-03-22T12:25:53.481Z,1030.99
2019-03-22T12:26:53.553Z,1030.95
2019-03-22T12:28:53.585Z,1030.95
2019-03-22T12:29:53.605Z,1030.9
2019-03-22T12:31:53.719Z,1030.92
2019-03-22T12:32:53.643Z,1030.88
2019-03-22T12:34:04.638Z,1030.9
2019-03-22T12:35:05.460Z,1030.89
2019-03-22T12:36:53.735Z,1030.86
2019-03-22T12:37:53.801Z,1030.83
2019-03-22T12:38:53.558Z,1030.88
2019-03-22T12:39:53.595Z,1030.81
2019-03-22T12:41:53.870Z,1030.81
2019-03-22T12:42:53.880Z,1030.81
2019-03-22T12:43:53.475Z,1030.82
2019-03-22T12:44:53.527Z,1030.76
2019-03-22T12:46:53.575Z,1030.69
2019-03-22T12:47:53.595Z,1030.7
2019-03-22T12:49:53.625Z,1030.66
2019-03-22T12:50:53.625Z,1030.66
2019-03-22T12:51:53.523Z,1030.66
2019-03-22T12:52:53.643Z,1030.63
2019-03-22T12:54:53.749Z,1030.55
2019-03-22T12:55:53.714Z,1030.6
2019-03-22T12:56:53.514Z,1030.55
2019-03-22T12:58:53.559Z,1030.54
2019-03-22T12:59:53.566Z,1030.51
2019-03-22T13:00:53.581Z,1030.48
2019-03-22T13:01:53.494Z,1030.51
2019-03-22T13:03:54.011Z,1030.51
2019-03-22T13:04:53.590Z,1030.45
2019-03-22T13:06:53.699Z,1030.46
2019-03-22T13:07:53.735Z,1030.43
2019-03-22T13:09:53.587Z,1030.36
2019-03-22T13:10:53.722Z,1030.34
2019-03-22T13:11:53.553Z,1030.33
2019-03-22T13:13:53.494Z,1030.32
2019-03-22T13:15:53.505Z,1030.27
2019-03-22T13:16:53.501Z,1030.28
2019-03-22T13:17:53.525Z,1030.22
2019-03-22T13:18:53.460Z,1030.25
2019-03-22T13:20:53.667Z,1030.23
2019-03-22T13:21:53.591Z,1030.23
2019-03-22T13:23:53.598Z,1030.2
2019-03-22T13:24:54.055Z,1030.17
2019-03-22T13:25:53.810Z,1030.18
2019-03-22T13:27:53.790Z,1030.17
2019-03-22T13:28:53.496Z,1030.17
2019-03-22T13:30:53.586Z,1030.15
2019-03-22T13:31:53.516Z,1030.16
2019-03-22T13:32:53.432Z,1030.1
2019-03-22T13:33:53.564Z,1030.1
2019-03-22T13:35:53.575Z,1030.08
2019-03-22T13:36:53.640Z,1030.1
2019-03-22T13:37:53.698Z,1030.07
2019-03-22T13:39:53.714Z,1030.04
2019-03-22T13:40:53.632Z,1030.08
2019-03-22T13:41:53.432Z,1030.05
2019-03-22T13:42:53.710Z,1030.01
2019-03-22T13:44:53.385Z,1030.02
2019-03-22T13:45:53.510Z,1030
2019-03-22T13:46:53.651Z,1029.95
2019-03-22T13:48:53.516Z,1029.95
2019-03-22T13:49:53.670Z,1029.96
2019-03-22T13:50:53.729Z,1029.9
2019-03-22T13:51:53.709Z,1029.89
2019-03-22T13:53:53.660Z,1029.86
2019-03-22T13:54:53.575Z,1029.85
2019-03-22T13:55:53.611Z,1029.89
2019-03-22T13:56:53.516Z,1029.83
2019-03-22T13:58:53.747Z,1029.81
2019-03-22T13:59:53.886Z,1029.82
2019-03-22T14:00:53.474Z,1029.8
2019-03-22T14:01:53.469Z,1029.78
2019-03-22T14:04:53.436Z,1029.75
2019-03-22T14:05:53.567Z,1029.73
2019-03-22T14:06:53.582Z,1029.74
2019-03-22T14:07:53.967Z,1029.72
2019-03-22T14:09:53.584Z,1029.7
2019-03-22T14:10:53.671Z,1029.69
2019-03-22T14:11:53.648Z,1029.7
2019-03-22T14:12:53.397Z,1029.7
2019-03-22T14:14:53.691Z,1029.69
2019-03-22T14:15:53.681Z,1029.68
2019-03-22T14:16:54.297Z,1029.69
2019-03-22T14:17:53.417Z,1029.66
2019-03-22T14:19:53.422Z,1029.69
2019-03-22T14:20:53.606Z,1029.7
2019-03-22T14:21:53.479Z,1029.69
2019-03-22T14:22:54.130Z,1029.68
2019-03-22T14:24:53.562Z,1029.63
2019-03-22T14:25:53.573Z,1029.63
2019-03-22T14:26:53.733Z,1029.63
2019-03-22T14:27:53.659Z,1029.62
2019-03-22T14:30:53.939Z,1029.59
2019-03-22T14:31:53.724Z,1029.57
2019-03-22T14:32:53.649Z,1029.54
2019-03-22T14:33:53.448Z,1029.53
2019-03-22T14:53:49.753Z,1029.33
2019-03-22T14:54:49.599Z,1029.31
2019-03-22T14:55:49.651Z,1029.33
2019-03-22T14:56:51.721Z,1029.28
2019-03-22T14:57:52.727Z,1029.26
2019-03-22T14:58:49.726Z,1029.23
2019-03-22T14:59:59.466Z,1029.24
2019-03-22T15:00:49.687Z,1029.19
2019-03-22T15:01:49.693Z,1029.2
2019-03-22T15:02:49.812Z,1029.19
2019-03-22T15:03:49.833Z,1029.17
2019-03-22T15:04:50.160Z,1029.14
2019-03-22T15:05:49.838Z,1029.17
2019-03-22T15:06:49.631Z,1029.14
2019-03-22T15:07:49.765Z,1029.11
2019-03-22T15:08:49.791Z,1029.14
2019-03-22T15:09:49.810Z,1029.09
2019-03-22T15:10:49.678Z,1029.09
2019-03-22T15:11:49.881Z,1029.05
2019-03-22T15:12:49.569Z,1029.02
2019-03-22T15:13:49.755Z,1029.02
2019-03-22T15:14:49.570Z,1028.99
2019-03-22T15:15:49.635Z,1028.99
2019-03-22T15:16:49.704Z,1029.02
2019-03-22T15:17:49.690Z,1029.02
2019-03-22T15:18:49.569Z,1029
2019-03-22T15:19:49.693Z,1028.98
2019-03-22T15:20:49.684Z,1028.98
2019-03-22T15:21:49.319Z,1028.97
2019-03-22T15:22:49.160Z,1028.93
2019-03-22T15:23:49.486Z,1028.94
2019-03-22T15:24:49.325Z,1028.91
2019-03-22T15:25:49.343Z,1028.93
2019-03-22T15:26:49.351Z,1028.94
2019-03-22T15:27:49.432Z,1028.93
2019-03-22T15:28:49.587Z,1028.93
2019-03-22T15:29:49.188Z,1028.94
2019-03-22T15:30:49.252Z,1028.93
2019-03-22T15:31:49.206Z,1028.9
2019-03-22T15:32:49.268Z,1028.89
2019-03-22T15:33:49.715Z,1028.87
2019-03-22T15:34:49.137Z,1028.86
2019-03-22T15:35:50.003Z,1028.82
2019-03-22T15:36:49.272Z,1028.85
2019-03-22T15:37:49.379Z,1028.82
2019-03-22T15:38:49.709Z,1028.78
2019-03-22T15:39:49.321Z,1028.78
2019-03-22T15:40:49.313Z,1028.77
2019-03-22T15:41:49.333Z,1028.78
2019-03-22T15:42:49.467Z,1028.73
2019-03-22T15:43:49.369Z,1028.74
2019-03-22T15:44:49.517Z,1028.73
2019-03-22T15:45:49.381Z,1028.73
2019-03-22T15:46:49.383Z,1028.74
2019-03-22T15:47:49.412Z,1028.73
2019-03-22T15:48:49.504Z,1028.7
2019-03-22T15:49:49.143Z,1028.7
2019-03-22T15:50:49.297Z,1028.66
2019-03-22T15:51:49.190Z,1028.67
2019-03-22T15:52:49.266Z,1028.67
2019-03-22T15:53:49.206Z,1028.63
2019-03-22T15:54:49.196Z,1028.61
2019-03-22T15:55:49.251Z,1028.61
2019-03-22T15:56:49.343Z,1028.62
2019-03-22T15:57:49.298Z,1028.6
2019-03-22T15:58:49.276Z,1028.6
2019-03-22T15:59:49.359Z,1028.59
2019-03-22T16:00:49.173Z,1028.57
2019-03-22T16:01:49.306Z,1028.63
2019-03-22T16:02:49.354Z,1028.6
2019-03-22T16:03:49.318Z,1028.6
2019-03-22T16:04:49.375Z,1028.59
2019-03-22T16:05:49.380Z,1028.62
2019-03-22T16:06:49.385Z,1028.64
2019-03-22T16:07:49.282Z,1028.63
2019-03-22T16:08:49.194Z,1028.64
2019-03-22T16:09:49.252Z,1028.63
2019-03-22T16:10:49.208Z,1028.61
2019-03-22T16:11:49.225Z,1028.65
2019-03-22T16:12:49.210Z,1028.61
2019-03-22T16:13:49.288Z,1028.64
2019-03-22T16:14:49.401Z,1028.62
2019-03-22T16:15:49.322Z,1028.65
2019-03-22T16:16:50.156Z,1028.64
2019-03-22T16:17:49.290Z,1028.65
2019-03-22T16:18:49.439Z,1028.66
2019-03-22T16:19:49.554Z,1028.66
2019-03-22T16:21:00.408Z,1028.68
2019-03-22T16:21:49.417Z,1028.71
2019-03-22T16:22:49.363Z,1028.72
2019-03-22T16:23:49.352Z,1028.68